sensor_id;sensor_type;location;lat;lon;timestamp;P1;durP1;ratioP1;P2;durP2;ratioP2
44000;SDS011;29660;42.892;24.710;2023-12-29T00:01:10;74.35;;;45.45;;
44000;SDS011;29660;42.892;24.710;2023-12-29T00:06:33;80.55;;;47.65;;
44000;SDS011;29660;42.892;24.710;2023-12-29T00:11:59;113.93;;;63.65;;
44000;SDS011;29660;42.892;24.710;2023-12-29T00:17:21;86.80;;;51.00;;
44000;SDS011;29660;42.892;24.710;2023-12-29T00:22:43;93.18;;;53.10;;
44000;SDS011;29660;42.892;24.710;2023-12-29T00:28:05;74.85;;;45.97;;
44000;SDS011;29660;42.892;24.710;2023-12-29T00:33:28;78.30;;;45.17;;
44000;SDS011;29660;42.892;24.710;2023-12-29T00:38:50;78.22;;;46.13;;
44000;SDS011;29660;42.892;24.710;2023-12-29T00:44:13;76.03;;;43.53;;
44000;SDS011;29660;42.892;24.710;2023-12-29T00:49:38;28.08;;;17.08;;
44000;SDS011;29660;42.892;24.710;2023-12-29T00:55:01;40.72;;;25.42;;
44000;SDS011;29660;42.892;24.710;2023-12-29T01:00:24;57.42;;;34.35;;
44000;SDS011;29660;42.892;24.710;2023-12-29T01:05:46;54.92;;;35.47;;
44000;SDS011;29660;42.892;24.710;2023-12-29T01:11:08;69.13;;;41.10;;
44000;SDS011;29660;42.892;24.710;2023-12-29T01:16:31;68.57;;;43.10;;
44000;SDS011;29660;42.892;24.710;2023-12-29T01:21:54;82.22;;;46.92;;
44000;SDS011;29660;42.892;24.710;2023-12-29T01:27:16;76.82;;;44.70;;
44000;SDS011;29660;42.892;24.710;2023-12-29T01:32:38;63.22;;;37.47;;
44000;SDS011;29660;42.892;24.710;2023-12-29T01:38:02;58.38;;;33.53;;
44000;SDS011;29660;42.892;24.710;2023-12-29T01:43:24;73.45;;;44.42;;
44000;SDS011;29660;42.892;24.710;2023-12-29T01:48:47;81.35;;;48.00;;
44000;SDS011;29660;42.892;24.710;2023-12-29T01:54:09;83.97;;;51.45;;
44000;SDS011;29660;42.892;24.710;2023-12-29T01:59:32;84.07;;;49.92;;
44000;SDS011;29660;42.892;24.710;2023-12-29T02:04:56;74.70;;;45.63;;
44000;SDS011;29660;42.892;24.710;2023-12-29T02:10:20;80.53;;;48.13;;
44000;SDS011;29660;42.892;24.710;2023-12-29T02:15:43;64.68;;;39.30;;
44000;SDS011;29660;42.892;24.710;2023-12-29T02:21:07;64.25;;;38.58;;
44000;SDS011;29660;42.892;24.710;2023-12-29T02:26:31;93.47;;;54.05;;
44000;SDS011;29660;42.892;24.710;2023-12-29T02:31:56;57.08;;;33.40;;
44000;SDS011;29660;42.892;24.710;2023-12-29T02:37:22;40.72;;;24.17;;
44000;SDS011;29660;42.892;24.710;2023-12-29T02:42:48;82.95;;;51.22;;
44000;SDS011;29660;42.892;24.710;2023-12-29T02:48:11;78.13;;;47.20;;
44000;SDS011;29660;42.892;24.710;2023-12-29T02:53:34;92.45;;;55.00;;
44000;SDS011;29660;42.892;24.710;2023-12-29T02:58:56;92.72;;;60.03;;
44000;SDS011;29660;42.892;24.710;2023-12-29T03:04:18;81.10;;;51.58;;
44000;SDS011;29660;42.892;24.710;2023-12-29T03:09:40;88.75;;;51.35;;
44000;SDS011;29660;42.892;24.710;2023-12-29T03:15:02;71.50;;;40.78;;
44000;SDS011;29660;42.892;24.710;2023-12-29T03:20:25;50.20;;;29.58;;
44000;SDS011;29660;42.892;24.710;2023-12-29T03:25:49;52.55;;;32.00;;
44000;SDS011;29660;42.892;24.710;2023-12-29T03:31:11;45.35;;;26.92;;
44000;SDS011;29660;42.892;24.710;2023-12-29T03:36:34;58.85;;;35.40;;
44000;SDS011;29660;42.892;24.710;2023-12-29T03:41:56;54.60;;;34.92;;
44000;SDS011;29660;42.892;24.710;2023-12-29T03:47:18;56.90;;;35.17;;
44000;SDS011;29660;42.892;24.710;2023-12-29T03:52:41;46.70;;;28.80;;
44000;SDS011;29660;42.892;24.710;2023-12-29T03:58:04;47.50;;;27.55;;
44000;SDS011;29660;42.892;24.710;2023-12-29T04:03:26;58.70;;;36.15;;
44000;SDS011;29660;42.892;24.710;2023-12-29T04:08:48;64.38;;;38.78;;
44000;SDS011;29660;42.892;24.710;2023-12-29T04:14:10;57.95;;;34.58;;
44000;SDS011;29660;42.892;24.710;2023-12-29T04:19:34;62.85;;;36.20;;
44000;SDS011;29660;42.892;24.710;2023-12-29T04:24:56;55.58;;;33.25;;
44000;SDS011;29660;42.892;24.710;2023-12-29T04:30:19;44.13;;;27.95;;
44000;SDS011;29660;42.892;24.710;2023-12-29T04:35:41;60.65;;;37.53;;
44000;SDS011;29660;42.892;24.710;2023-12-29T04:41:03;124.47;;;73.65;;
44000;SDS011;29660;42.892;24.710;2023-12-29T04:46:25;85.72;;;49.80;;
44000;SDS011;29660;42.892;24.710;2023-12-29T04:51:47;77.22;;;48.08;;
44000;SDS011;29660;42.892;24.710;2023-12-29T04:57:10;1326.63;;;732.40;;
44000;SDS011;29660;42.892;24.710;2023-12-29T05:02:32;491.27;;;359.92;;
44000;SDS011;29660;42.892;24.710;2023-12-29T05:07:54;215.98;;;138.27;;
44000;SDS011;29660;42.892;24.710;2023-12-29T05:13:16;109.32;;;68.65;;
44000;SDS011;29660;42.892;24.710;2023-12-29T05:18:39;100.97;;;67.03;;
44000;SDS011;29660;42.892;24.710;2023-12-29T05:24:01;123.28;;;81.35;;
44000;SDS011;29660;42.892;24.710;2023-12-29T05:29:23;125.93;;;82.03;;
44000;SDS011;29660;42.892;24.710;2023-12-29T05:34:45;165.95;;;98.93;;
44000;SDS011;29660;42.892;24.710;2023-12-29T05:40:07;44.38;;;29.55;;
44000;SDS011;29660;42.892;24.710;2023-12-29T05:45:30;103.43;;;72.55;;
44000;SDS011;29660;42.892;24.710;2023-12-29T05:50:52;122.00;;;83.07;;
44000;SDS011;29660;42.892;24.710;2023-12-29T05:56:15;130.82;;;90.03;;
44000;SDS011;29660;42.892;24.710;2023-12-29T06:01:37;144.20;;;84.93;;
44000;SDS011;29660;42.892;24.710;2023-12-29T06:06:59;79.13;;;50.85;;
44000;SDS011;29660;42.892;24.710;2023-12-29T06:12:22;69.65;;;48.42;;
44000;SDS011;29660;42.892;24.710;2023-12-29T06:17:44;74.00;;;51.67;;
44000;SDS011;29660;42.892;24.710;2023-12-29T06:23:06;88.90;;;58.30;;
44000;SDS011;29660;42.892;24.710;2023-12-29T06:28:28;112.30;;;77.82;;
44000;SDS011;29660;42.892;24.710;2023-12-29T06:33:50;304.52;;;170.95;;
44000;SDS011;29660;42.892;24.710;2023-12-29T06:39:13;126.38;;;81.88;;
44000;SDS011;29660;42.892;24.710;2023-12-29T06:44:35;182.45;;;116.95;;
44000;SDS011;29660;42.892;24.710;2023-12-29T06:49:57;178.32;;;114.05;;
44000;SDS011;29660;42.892;24.710;2023-12-29T06:55:19;167.23;;;106.28;;
44000;SDS011;29660;42.892;24.710;2023-12-29T07:00:41;150.77;;;97.68;;
44000;SDS011;29660;42.892;24.710;2023-12-29T07:06:05;121.35;;;84.75;;
44000;SDS011;29660;42.892;24.710;2023-12-29T07:11:27;125.25;;;81.30;;
44000;SDS011;29660;42.892;24.710;2023-12-29T07:16:50;141.35;;;84.25;;
44000;SDS011;29660;42.892;24.710;2023-12-29T07:22:12;116.53;;;73.57;;
44000;SDS011;29660;42.892;24.710;2023-12-29T07:27:36;227.50;;;80.78;;
44000;SDS011;29660;42.892;24.710;2023-12-29T07:32:58;119.85;;;77.20;;
44000;SDS011;29660;42.892;24.710;2023-12-29T07:38:21;127.13;;;81.90;;
44000;SDS011;29660;42.892;24.710;2023-12-29T07:43:43;147.82;;;104.43;;
44000;SDS011;29660;42.892;24.710;2023-12-29T07:49:05;168.82;;;117.47;;
44000;SDS011;29660;42.892;24.710;2023-12-29T07:54:27;134.57;;;98.88;;
44000;SDS011;29660;42.892;24.710;2023-12-29T07:59:49;164.95;;;113.80;;
44000;SDS011;29660;42.892;24.710;2023-12-29T08:05:12;146.70;;;106.45;;
44000;SDS011;29660;42.892;24.710;2023-12-29T08:10:34;133.35;;;95.07;;
44000;SDS011;29660;42.892;24.710;2023-12-29T08:15:56;124.10;;;82.57;;
44000;SDS011;29660;42.892;24.710;2023-12-29T08:21:19;116.72;;;86.25;;
44000;SDS011;29660;42.892;24.710;2023-12-29T08:26:43;142.02;;;102.15;;
44000;SDS011;29660;42.892;24.710;2023-12-29T08:32:07;161.95;;;123.60;;
44000;SDS011;29660;42.892;24.710;2023-12-29T08:37:30;159.73;;;118.75;;
44000;SDS011;29660;42.892;24.710;2023-12-29T08:42:52;145.85;;;110.18;;
44000;SDS011;29660;42.892;24.710;2023-12-29T08:48:16;146.52;;;110.88;;
44000;SDS011;29660;42.892;24.710;2023-12-29T08:53:39;119.65;;;91.68;;
44000;SDS011;29660;42.892;24.710;2023-12-29T08:59:01;124.50;;;90.63;;
44000;SDS011;29660;42.892;24.710;2023-12-29T09:04:23;115.57;;;83.10;;
44000;SDS011;29660;42.892;24.710;2023-12-29T09:09:45;92.72;;;69.97;;
44000;SDS011;29660;42.892;24.710;2023-12-29T09:15:08;79.32;;;59.30;;
44000;SDS011;29660;42.892;24.710;2023-12-29T09:20:30;72.47;;;51.95;;
44000;SDS011;29660;42.892;24.710;2023-12-29T09:25:52;69.57;;;48.70;;
44000;SDS011;29660;42.892;24.710;2023-12-29T09:31:15;97.00;;;59.05;;
44000;SDS011;29660;42.892;24.710;2023-12-29T09:36:37;104.53;;;68.70;;
44000;SDS011;29660;42.892;24.710;2023-12-29T09:41:59;58.50;;;39.67;;
44000;SDS011;29660;42.892;24.710;2023-12-29T09:47:25;34.85;;;22.17;;
44000;SDS011;29660;42.892;24.710;2023-12-29T09:52:49;30.27;;;20.85;;
44000;SDS011;29660;42.892;24.710;2023-12-29T09:58:12;20.90;;;13.00;;
44000;SDS011;29660;42.892;24.710;2023-12-29T10:03:34;18.45;;;11.65;;
44000;SDS011;29660;42.892;24.710;2023-12-29T10:08:56;24.70;;;13.98;;
44000;SDS011;29660;42.892;24.710;2023-12-29T10:19:49;14.98;;;8.95;;
44000;SDS011;29660;42.892;24.710;2023-12-29T10:25:17;11.77;;;8.05;;
44000;SDS011;29660;42.892;24.710;2023-12-29T10:30:40;11.50;;;7.28;;
44000;SDS011;29660;42.892;24.710;2023-12-29T10:36:02;12.75;;;8.30;;
44000;SDS011;29660;42.892;24.710;2023-12-29T10:41:26;18.50;;;11.75;;
44000;SDS011;29660;42.892;24.710;2023-12-29T10:46:49;7.55;;;5.70;;
44000;SDS011;29660;42.892;24.710;2023-12-29T10:52:15;10.93;;;7.75;;
44000;SDS011;29660;42.892;24.710;2023-12-29T10:57:38;18.77;;;11.63;;
44000;SDS011;29660;42.892;24.710;2023-12-29T11:03:01;12.68;;;9.18;;
44000;SDS011;29660;42.892;24.710;2023-12-29T11:08:26;10.25;;;6.97;;
44000;SDS011;29660;42.892;24.710;2023-12-29T11:13:48;12.48;;;6.88;;
44000;SDS011;29660;42.892;24.710;2023-12-29T11:19:11;14.18;;;9.55;;
44000;SDS011;29660;42.892;24.710;2023-12-29T11:24:35;17.02;;;10.07;;
44000;SDS011;29660;42.892;24.710;2023-12-29T11:29:59;12.52;;;8.88;;
44000;SDS011;29660;42.892;24.710;2023-12-29T11:35:31;10.00;;;6.03;;
44000;SDS011;29660;42.892;24.710;2023-12-29T11:51:56;11.10;;;6.53;;
44000;SDS011;29660;42.892;24.710;2023-12-29T11:57:33;9.73;;;5.22;;
44000;SDS011;29660;42.892;24.710;2023-12-29T12:02:55;8.57;;;4.93;;
44000;SDS011;29660;42.892;24.710;2023-12-29T12:08:29;9.23;;;4.82;;
44000;SDS011;29660;42.892;24.710;2023-12-29T12:13:51;8.82;;;4.82;;
44000;SDS011;29660;42.892;24.710;2023-12-29T12:19:14;8.35;;;5.28;;
44000;SDS011;29660;42.892;24.710;2023-12-29T12:24:38;12.65;;;6.97;;
44000;SDS011;29660;42.892;24.710;2023-12-29T12:30:01;9.93;;;6.60;;
44000;SDS011;29660;42.892;24.710;2023-12-29T12:35:23;10.35;;;6.28;;
44000;SDS011;29660;42.892;24.710;2023-12-29T12:40:48;10.40;;;7.10;;
44000;SDS011;29660;42.892;24.710;2023-12-29T12:46:10;6.78;;;4.85;;
44000;SDS011;29660;42.892;24.710;2023-12-29T12:51:32;11.15;;;7.40;;
44000;SDS011;29660;42.892;24.710;2023-12-29T12:56:55;10.13;;;6.65;;
44000;SDS011;29660;42.892;24.710;2023-12-29T13:02:17;14.45;;;8.95;;
44000;SDS011;29660;42.892;24.710;2023-12-29T13:07:41;12.60;;;7.85;;
44000;SDS011;29660;42.892;24.710;2023-12-29T13:13:03;16.17;;;11.65;;
44000;SDS011;29660;42.892;24.710;2023-12-29T13:18:29;13.55;;;9.57;;
44000;SDS011;29660;42.892;24.710;2023-12-29T13:23:53;10.98;;;7.47;;
44000;SDS011;29660;42.892;24.710;2023-12-29T13:29:18;15.20;;;10.18;;
44000;SDS011;29660;42.892;24.710;2023-12-29T13:40:46;39.38;;;24.95;;
44000;SDS011;29660;42.892;24.710;2023-12-29T13:46:29;33.00;;;23.48;;
44000;SDS011;29660;42.892;24.710;2023-12-29T13:51:52;17.98;;;10.27;;
44000;SDS011;29660;42.892;24.710;2023-12-29T13:57:14;33.20;;;24.73;;
44000;SDS011;29660;42.892;24.710;2023-12-29T14:02:38;30.08;;;20.55;;
44000;SDS011;29660;42.892;24.710;2023-12-29T14:13:27;64.15;;;45.80;;
44000;SDS011;29660;42.892;24.710;2023-12-29T14:18:53;36.28;;;26.83;;
44000;SDS011;29660;42.892;24.710;2023-12-29T14:24:18;52.08;;;39.33;;
44000;SDS011;29660;42.892;24.710;2023-12-29T14:29:41;117.28;;;88.82;;
44000;SDS011;29660;42.892;24.710;2023-12-29T14:35:03;104.28;;;77.38;;
44000;SDS011;29660;42.892;24.710;2023-12-29T14:40:32;167.48;;;138.50;;
44000;SDS011;29660;42.892;24.710;2023-12-29T14:45:57;237.98;;;193.68;;
44000;SDS011;29660;42.892;24.710;2023-12-29T14:51:20;151.63;;;115.22;;
44000;SDS011;29660;42.892;24.710;2023-12-29T14:56:43;135.23;;;104.63;;
44000;SDS011;29660;42.892;24.710;2023-12-29T15:02:05;186.27;;;133.90;;
44000;SDS011;29660;42.892;24.710;2023-12-29T15:07:29;178.98;;;131.02;;
44000;SDS011;29660;42.892;24.710;2023-12-29T15:12:52;125.90;;;98.93;;
44000;SDS011;29660;42.892;24.710;2023-12-29T15:18:14;121.28;;;93.93;;
44000;SDS011;29660;42.892;24.710;2023-12-29T15:23:38;109.47;;;85.20;;
44000;SDS011;29660;42.892;24.710;2023-12-29T15:29:00;166.55;;;127.05;;
44000;SDS011;29660;42.892;24.710;2023-12-29T15:34:23;183.40;;;145.30;;
44000;SDS011;29660;42.892;24.710;2023-12-29T15:39:45;158.13;;;121.47;;
44000;SDS011;29660;42.892;24.710;2023-12-29T15:45:08;248.07;;;176.18;;
44000;SDS011;29660;42.892;24.710;2023-12-29T15:50:32;502.20;;;361.98;;
44000;SDS011;29660;42.892;24.710;2023-12-29T15:55:54;463.73;;;333.45;;
44000;SDS011;29660;42.892;24.710;2023-12-29T16:01:25;299.67;;;224.15;;
44000;SDS011;29660;42.892;24.710;2023-12-29T16:06:53;189.85;;;141.10;;
44000;SDS011;29660;42.892;24.710;2023-12-29T16:12:15;162.32;;;123.00;;
44000;SDS011;29660;42.892;24.710;2023-12-29T16:17:38;213.48;;;154.75;;
44000;SDS011;29660;42.892;24.710;2023-12-29T16:23:01;187.45;;;129.52;;
44000;SDS011;29660;42.892;24.710;2023-12-29T16:28:23;291.30;;;223.43;;
44000;SDS011;29660;42.892;24.710;2023-12-29T16:33:46;222.98;;;165.40;;
44000;SDS011;29660;42.892;24.710;2023-12-29T16:39:10;166.23;;;113.47;;
44000;SDS011;29660;42.892;24.710;2023-12-29T16:44:32;163.95;;;118.28;;
44000;SDS011;29660;42.892;24.710;2023-12-29T16:49:55;204.10;;;150.43;;
44000;SDS011;29660;42.892;24.710;2023-12-29T16:55:17;192.55;;;136.30;;
44000;SDS011;29660;42.892;24.710;2023-12-29T17:00:40;225.80;;;152.02;;
44000;SDS011;29660;42.892;24.710;2023-12-29T17:06:03;197.50;;;136.35;;
44000;SDS011;29660;42.892;24.710;2023-12-29T17:11:25;201.20;;;140.93;;
44000;SDS011;29660;42.892;24.710;2023-12-29T17:16:47;264.00;;;179.35;;
44000;SDS011;29660;42.892;24.710;2023-12-29T17:22:10;265.77;;;187.82;;
44000;SDS011;29660;42.892;24.710;2023-12-29T17:27:32;263.73;;;184.07;;
44000;SDS011;29660;42.892;24.710;2023-12-29T17:32:54;232.77;;;156.50;;
44000;SDS011;29660;42.892;24.710;2023-12-29T17:38:16;219.05;;;152.15;;
44000;SDS011;29660;42.892;24.710;2023-12-29T17:43:39;241.43;;;155.40;;
44000;SDS011;29660;42.892;24.710;2023-12-29T17:49:01;314.42;;;186.65;;
44000;SDS011;29660;42.892;24.710;2023-12-29T17:54:26;213.63;;;139.40;;
44000;SDS011;29660;42.892;24.710;2023-12-29T17:59:49;243.95;;;154.63;;
44000;SDS011;29660;42.892;24.710;2023-12-29T18:05:11;225.65;;;150.93;;
44000;SDS011;29660;42.892;24.710;2023-12-29T18:10:33;222.00;;;147.70;;
44000;SDS011;29660;42.892;24.710;2023-12-29T18:15:55;239.93;;;156.38;;
44000;SDS011;29660;42.892;24.710;2023-12-29T18:21:18;198.48;;;133.95;;
44000;SDS011;29660;42.892;24.710;2023-12-29T18:26:40;199.48;;;131.48;;
44000;SDS011;29660;42.892;24.710;2023-12-29T18:32:03;174.43;;;111.30;;
44000;SDS011;29660;42.892;24.710;2023-12-29T18:37:37;243.57;;;169.05;;
44000;SDS011;29660;42.892;24.710;2023-12-29T18:43:00;198.90;;;127.85;;
44000;SDS011;29660;42.892;24.710;2023-12-29T18:48:23;211.10;;;138.45;;
44000;SDS011;29660;42.892;24.710;2023-12-29T18:53:46;159.10;;;108.45;;
44000;SDS011;29660;42.892;24.710;2023-12-29T18:59:08;166.48;;;114.40;;
44000;SDS011;29660;42.892;24.710;2023-12-29T19:04:34;193.50;;;117.07;;
44000;SDS011;29660;42.892;24.710;2023-12-29T19:09:57;158.90;;;106.78;;
44000;SDS011;29660;42.892;24.710;2023-12-29T19:15:19;226.63;;;148.98;;
44000;SDS011;29660;42.892;24.710;2023-12-29T19:20:41;211.65;;;144.68;;
44000;SDS011;29660;42.892;24.710;2023-12-29T19:26:05;213.88;;;145.38;;
44000;SDS011;29660;42.892;24.710;2023-12-29T19:31:27;202.80;;;141.10;;
44000;SDS011;29660;42.892;24.710;2023-12-29T19:36:49;181.07;;;124.72;;
44000;SDS011;29660;42.892;24.710;2023-12-29T19:42:11;184.52;;;130.27;;
44000;SDS011;29660;42.892;24.710;2023-12-29T19:47:34;201.90;;;140.85;;
44000;SDS011;29660;42.892;24.710;2023-12-29T19:52:56;185.50;;;131.93;;
44000;SDS011;29660;42.892;24.710;2023-12-29T19:58:19;223.82;;;156.75;;
44000;SDS011;29660;42.892;24.710;2023-12-29T20:03:41;216.18;;;151.13;;
44000;SDS011;29660;42.892;24.710;2023-12-29T20:09:04;219.80;;;148.93;;
44000;SDS011;29660;42.892;24.710;2023-12-29T20:14:27;160.15;;;114.13;;
44000;SDS011;29660;42.892;24.710;2023-12-29T20:19:49;156.88;;;110.50;;
44000;SDS011;29660;42.892;24.710;2023-12-29T20:25:11;178.15;;;122.47;;
44000;SDS011;29660;42.892;24.710;2023-12-29T20:30:33;220.60;;;148.05;;
44000;SDS011;29660;42.892;24.710;2023-12-29T20:35:57;216.10;;;141.63;;
44000;SDS011;29660;42.892;24.710;2023-12-29T20:41:19;189.55;;;125.57;;
44000;SDS011;29660;42.892;24.710;2023-12-29T20:46:44;132.45;;;94.95;;
44000;SDS011;29660;42.892;24.710;2023-12-29T20:52:06;129.40;;;85.25;;
44000;SDS011;29660;42.892;24.710;2023-12-29T20:57:29;117.57;;;78.70;;
44000;SDS011;29660;42.892;24.710;2023-12-29T21:02:51;103.32;;;67.32;;
44000;SDS011;29660;42.892;24.710;2023-12-29T21:08:14;150.43;;;95.47;;
44000;SDS011;29660;42.892;24.710;2023-12-29T21:13:38;177.45;;;108.28;;
44000;SDS011;29660;42.892;24.710;2023-12-29T21:19:00;214.98;;;133.50;;
44000;SDS011;29660;42.892;24.710;2023-12-29T21:24:23;186.68;;;118.53;;
44000;SDS011;29660;42.892;24.710;2023-12-29T21:29:45;306.83;;;205.35;;
44000;SDS011;29660;42.892;24.710;2023-12-29T21:35:15;257.23;;;166.65;;
44000;SDS011;29660;42.892;24.710;2023-12-29T21:40:38;144.00;;;99.00;;
44000;SDS011;29660;42.892;24.710;2023-12-29T21:46:03;112.80;;;76.10;;
44000;SDS011;29660;42.892;24.710;2023-12-29T21:51:25;94.70;;;63.55;;
44000;SDS011;29660;42.892;24.710;2023-12-29T21:56:50;319.73;;;209.57;;
44000;SDS011;29660;42.892;24.710;2023-12-29T22:02:14;83.13;;;55.15;;
44000;SDS011;29660;42.892;24.710;2023-12-29T22:07:36;110.53;;;75.90;;
44000;SDS011;29660;42.892;24.710;2023-12-29T22:12:58;130.48;;;90.05;;
44000;SDS011;29660;42.892;24.710;2023-12-29T22:18:21;121.32;;;82.47;;
44000;SDS011;29660;42.892;24.710;2023-12-29T22:23:43;146.95;;;101.13;;
44000;SDS011;29660;42.892;24.710;2023-12-29T22:29:06;193.13;;;123.65;;
44000;SDS011;29660;42.892;24.710;2023-12-29T22:34:28;157.32;;;102.55;;
44000;SDS011;29660;42.892;24.710;2023-12-29T22:39:51;172.65;;;108.78;;
44000;SDS011;29660;42.892;24.710;2023-12-29T22:45:13;151.45;;;101.78;;
44000;SDS011;29660;42.892;24.710;2023-12-29T22:50:35;121.78;;;82.40;;
44000;SDS011;29660;42.892;24.710;2023-12-29T22:55:58;112.32;;;75.75;;
44000;SDS011;29660;42.892;24.710;2023-12-29T23:01:22;95.28;;;59.70;;
44000;SDS011;29660;42.892;24.710;2023-12-29T23:06:45;84.60;;;55.42;;
44000;SDS011;29660;42.892;24.710;2023-12-29T23:12:07;96.18;;;56.08;;
44000;SDS011;29660;42.892;24.710;2023-12-29T23:17:32;219.70;;;96.28;;
44000;SDS011;29660;42.892;24.710;2023-12-29T23:22:54;187.40;;;83.80;;
44000;SDS011;29660;42.892;24.710;2023-12-29T23:28:16;160.52;;;62.30;;
44000;SDS011;29660;42.892;24.710;2023-12-29T23:33:38;80.55;;;40.55;;
44000;SDS011;29660;42.892;24.710;2023-12-29T23:39:02;62.85;;;38.90;;
44000;SDS011;29660;42.892;24.710;2023-12-29T23:44:24;62.35;;;36.65;;
44000;SDS011;29660;42.892;24.710;2023-12-29T23:49:48;62.33;;;37.45;;
44000;SDS011;29660;42.892;24.710;2023-12-29T23:55:10;58.95;;;37.53;;
